Impacts TAF Board INFO
FOR SITUATIONAL AWARENESS. NOT TO BE USED FOR FLIGHT PLANNING PURPOSES.
IDs:

KORD - Chicago/O'Hare Intl, IL, US

Issued at 0524 UTC 24 Nov 2017
Updated at 0717 UTC 24 Nov 2017
Potential Impact None Slight Moderate High
Time0651Z 24/08Z 24/09Z 24/10Z 24/11Z 24/12Z 24/13Z 24/14Z 24/15Z 24/16Z 24/17Z 24/18Z 24/19Z 24/20Z>>
Type OBS PRVL PRVL PRVL PRVL PRVL PRVL PRVL PRVL PRVL PRVL PRVL PRVL PRVL
VIS 10 >6 >6 >6 >6 >6 >6 >6 >6 >6 >6 >6 >6 >6
CIG -- -- -- -- -- -- -- -- -- -- -- -- -- --
Cover CLR FEW FEW FEW FEW FEW SCT SCT SCT SCT SCT SCT SCT SCT
FltCat VFR VFR VFR VFR VFR VFR VFR VFR VFR VFR VFR VFR VFR VFR
WX -- -- -- -- -- -- -- -- -- -- -- -- -- --
WDir 190 210 210 210 210 210 200 200 200 200 200 200 200 200
WSpd 7 8 8 8 8 8 13 13 13 13 13 17 17 17
WGst -- -- -- -- -- -- 21 21 21 21 21 29 29 29

Raw TAF
KORD 240524Z 2406/2512 21008KT P6SM FEW250
  FM241300 20013G21KT P6SM SCT180
  FM241800 20017G29KT P6SM SCT080 SCT120
  FM250100 24014KT P6SM SCT080 BKN120
  FM250500 31014G22KT P6SM FEW250


Raw METAR
KORD 240651Z 19007KT 10SM CLR 01/M03 A2984 RMK AO2 SLP109 T00061033
KORD 240551Z 19004KT 10SM CLR 01/M03 A2987 RMK AO2 SLP121 T00111033 10044 20011 400780000 58010
KORD 240451Z 22003KT 10SM CLR 02/M03 A2989 RMK AO2 SLP128 T00221033

METAR Board
Radar Display
Forecast Discussion

FOR SITUATIONAL AWARENESS. NOT TO BE USED FOR FLIGHT PLANNING PURPOSES.